createdAt,value
2022-09-12T00:00:08.333Z,8.87
2022-09-12T00:02:34.891Z,9.32
2022-09-12T00:05:01.428Z,8.77
2022-09-12T00:07:28.064Z,8.43
2022-09-12T00:09:54.705Z,8.30
2022-09-12T00:12:21.263Z,9.17
2022-09-12T00:14:47.805Z,8.25
2022-09-12T00:17:14.380Z,7.97
2022-09-12T00:19:40.885Z,6.40
2022-09-12T00:22:07.800Z,7.38
2022-09-12T00:24:34.448Z,5.43
2022-09-12T00:27:01.021Z,6.22
2022-09-12T00:29:27.611Z,6.47
2022-09-12T00:31:54.149Z,6.45
2022-09-12T00:34:20.701Z,6.82
2022-09-12T00:36:47.381Z,5.27
2022-09-12T00:39:16.942Z,8.27
2022-09-12T00:41:44.728Z,6.32
2022-09-12T00:44:12.275Z,6.20
2022-09-12T00:46:48.100Z,5.40
2022-09-12T00:49:15.586Z,7.07
2022-09-12T00:51:47.229Z,6.32
2022-09-12T00:54:19.330Z,5.57
2022-09-12T00:56:49.096Z,9.20
2022-09-12T00:59:21.710Z,7.55
2022-09-12T01:01:51.191Z,6.60
2022-09-12T01:04:22.143Z,6.40
2022-09-12T01:06:51.894Z,7.25
2022-09-12T01:09:21.815Z,10.77
2022-09-12T01:11:50.480Z,7.82
2022-09-12T01:14:18.089Z,7.90
2022-09-12T01:16:46.371Z,7.25
2022-09-12T01:19:40.652Z,7.10
2022-09-12T01:22:07.119Z,9.45
2022-09-12T01:25:07.783Z,8.32
2022-09-12T01:27:49.149Z,6.27
2022-09-12T01:30:24.093Z,7.47
2022-09-12T01:33:10.172Z,7.78
2022-09-12T01:35:56.743Z,7.47
2022-09-12T01:38:31.449Z,7.78
2022-09-12T01:41:09.056Z,6.90
2022-09-12T01:43:56.208Z,9.10
2022-09-12T01:46:49.792Z,8.75
2022-09-12T01:49:23.176Z,7.97
2022-09-12T01:52:20.548Z,7.22
2022-09-12T01:54:53.400Z,6.43
2022-09-12T01:57:39.302Z,8.68
2022-09-12T02:00:10.283Z,8.98
2022-09-12T02:02:39.488Z,8.32
2022-09-12T02:05:10.926Z,7.60
2022-09-12T02:07:44.034Z,7.93
2022-09-12T02:10:19.668Z,8.38
2022-09-12T02:12:52.005Z,6.35
2022-09-12T02:15:23.953Z,8.70
2022-09-12T02:17:52.493Z,8.23
2022-09-12T02:20:37.471Z,7.23
2022-09-12T02:23:15.863Z,7.70
2022-09-12T02:25:47.167Z,8.15
2022-09-12T02:28:27.364Z,6.03
2022-09-12T02:31:23.565Z,7.55
2022-09-12T02:33:50.068Z,6.97
2022-09-12T02:36:28.782Z,7.13
2022-09-12T02:38:55.752Z,8.70
2022-09-12T02:41:23.257Z,7.55
2022-09-12T02:43:51.871Z,6.43
2022-09-12T02:46:23.563Z,5.57
2022-09-12T02:48:50.169Z,6.40
2022-09-12T02:51:20.389Z,6.57
2022-09-12T02:53:49.644Z,8.50
2022-09-12T02:56:24.153Z,8.50
2022-09-12T02:58:51.411Z,6.70
2022-09-12T03:01:40.354Z,7.47
2022-09-12T03:04:22.050Z,6.53
2022-09-12T03:07:21.806Z,8.85
2022-09-12T03:10:14.991Z,7.97
2022-09-12T03:13:02.079Z,8.60
2022-09-12T03:15:54.646Z,8.23
2022-09-12T03:18:35.744Z,7.38
2022-09-12T03:21:17.512Z,6.95
2022-09-12T03:24:04.404Z,9.40
2022-09-12T03:26:35.180Z,8.33
2022-09-12T03:29:06.482Z,7.63
2022-09-12T03:31:33.429Z,9.65
2022-09-12T03:34:00.651Z,9.38
2022-09-12T03:36:29.571Z,10.93
2022-09-12T03:38:56.660Z,9.03
2022-09-12T03:41:23.237Z,10.20
2022-09-12T03:43:49.918Z,8.52
2022-09-12T03:46:16.630Z,10.02
2022-09-12T03:48:43.276Z,8.82
2022-09-12T03:51:10.764Z,11.43
2022-09-12T03:54:08.555Z,9.73
2022-09-12T03:56:26.178Z,8.93
2022-09-12T03:58:52.915Z,11.57
2022-09-12T04:01:20.168Z,10.40
2022-09-12T04:03:52.523Z,10.93
2022-09-12T04:06:23.001Z,9.23
2022-09-12T04:08:52.001Z,7.93
2022-09-12T04:11:22.485Z,8.15
2022-09-12T04:13:49.271Z,7.18
2022-09-12T04:16:16.806Z,13.07
2022-09-12T04:18:44.091Z,10.43
2022-09-12T04:21:15.685Z,8.23
2022-09-12T04:23:43.023Z,9.77
2022-09-12T04:26:12.972Z,9.07
2022-09-12T04:28:40.128Z,8.67
2022-09-12T04:31:13.927Z,8.70
2022-09-12T04:33:40.569Z,11.32
2022-09-12T04:36:10.764Z,12.45
2022-09-12T04:38:38.607Z,11.07
2022-09-12T04:41:14.246Z,11.90
2022-09-12T04:43:41.172Z,12.45
2022-09-12T04:46:09.286Z,12.70
2022-09-12T04:48:39.002Z,13.15
2022-09-12T04:51:09.689Z,12.85
2022-09-12T04:53:37.197Z,11.27
2022-09-12T04:56:06.979Z,11.48
2022-09-12T04:58:34.323Z,11.55
2022-09-12T05:01:21.246Z,10.82
2022-09-12T05:03:48.837Z,11.23
2022-09-12T05:06:19.008Z,10.63
2022-09-12T05:08:46.144Z,11.82
2022-09-12T05:11:16.297Z,11.57
2022-09-12T05:13:43.778Z,12.10
2022-09-12T05:16:12.690Z,11.85
2022-09-12T05:18:39.460Z,12.80
2022-09-12T05:21:09.317Z,13.75
2022-09-12T05:23:35.962Z,15.70
2022-09-12T05:26:04.712Z,14.85
2022-09-12T05:28:34.416Z,11.98
2022-09-12T05:31:11.910Z,13.70
2022-09-12T05:34:11.837Z,11.82
2022-09-12T05:36:38.700Z,15.75
2022-09-12T05:39:05.348Z,16.33
2022-09-12T05:41:33.837Z,15.38
2022-09-12T05:44:03.156Z,16.40
2022-09-12T05:46:42.685Z,14.30
2022-09-12T05:49:36.308Z,13.73
2022-09-12T05:53:25.115Z,16.45
2022-09-12T05:55:17.241Z,19.58
2022-09-12T06:00:55.474Z,14.55
2022-09-12T06:13:59.500Z,15.47
2022-09-12T06:29:21.178Z,16.27
2022-09-12T06:31:47.691Z,16.67
2022-09-12T06:39:48.878Z,18.05
2022-09-12T06:45:00.835Z,17.65
2022-09-12T06:47:28.323Z,16.55
2022-09-12T06:50:28.113Z,17.42
2022-09-12T06:52:45.428Z,17.55
2022-09-12T06:55:48.253Z,19.27
2022-09-12T07:16:52.636Z,27.33
2022-09-12T07:19:19.238Z,28.88
2022-09-12T07:21:45.786Z,29.65
2022-09-12T07:24:12.253Z,30.43
2022-09-12T07:26:41.536Z,27.23
2022-09-12T07:32:02.058Z,32.17
2022-09-12T07:34:28.541Z,36.63
2022-09-12T07:36:54.978Z,32.90
2022-09-12T07:39:21.380Z,36.22
2022-09-12T07:41:48.199Z,38.35
2022-09-12T07:44:14.790Z,36.22
2022-09-12T07:46:41.250Z,37.55
2022-09-12T07:49:08.528Z,38.20
2022-09-12T07:51:35.152Z,35.33
2022-09-12T07:54:01.592Z,35.78
2022-09-12T07:56:31.073Z,35.38
2022-09-12T07:58:58.923Z,35.55
2022-09-12T08:01:25.748Z,35.13
2022-09-12T08:03:56.928Z,36.92
2022-09-12T08:06:24.340Z,32.78
2022-09-12T08:08:52.560Z,38.92
2022-09-12T08:11:21.098Z,31.15
2022-09-12T08:13:52.953Z,34.80
2022-09-12T08:16:23.597Z,33.38
2022-09-12T08:18:51.392Z,34.22
2022-09-12T08:21:21.332Z,30.45
2022-09-12T08:23:52.667Z,29.98
2022-09-12T08:26:19.480Z,29.50
2022-09-12T08:28:46.327Z,33.03
2022-09-12T08:31:15.426Z,33.20
2022-09-12T08:33:42.275Z,28.35
2022-09-12T08:36:12.350Z,27.17
2022-09-12T08:38:41.882Z,28.93
2022-09-12T08:41:13.401Z,33.97
2022-09-12T08:43:56.958Z,27.75
2022-09-12T08:46:36.089Z,28.98
2022-09-12T08:49:04.320Z,26.63
2022-09-12T08:51:34.685Z,26.87
2022-09-12T08:54:03.723Z,25.88
2022-09-12T08:56:36.198Z,23.58
2022-09-12T08:59:03.225Z,25.13
2022-09-12T09:01:32.796Z,27.90
2022-09-12T09:04:16.088Z,23.43
2022-09-12T09:07:04.976Z,22.83
2022-09-12T09:09:54.767Z,25.33
2022-09-12T09:12:27.190Z,22.33
2022-09-12T09:15:22.070Z,23.52
2022-09-12T09:22:13.489Z,26.08
2022-09-12T09:24:51.892Z,30.40
2022-09-12T09:30:22.964Z,24.65
2022-09-12T09:33:38.938Z,23.47
2022-09-12T09:37:01.423Z,20.50
2022-09-12T09:39:39.673Z,20.92
2022-09-12T09:42:23.123Z,23.95
2022-09-12T09:44:52.927Z,17.92
2022-09-12T09:47:19.894Z,18.13
2022-09-12T09:49:47.646Z,21.80
2022-09-12T09:52:39.950Z,18.02
2022-09-12T09:55:18.178Z,17.92
2022-09-12T10:01:01.705Z,19.20
2022-09-12T10:03:32.690Z,18.70
2022-09-12T10:10:15.590Z,22.30
2022-09-12T10:12:42.291Z,20.00
2022-09-12T10:15:28.507Z,15.93
2022-09-12T10:17:56.711Z,18.45
2022-09-12T10:20:33.368Z,16.17
2022-09-12T10:23:48.566Z,19.10
2022-09-12T10:26:19.560Z,14.80
2022-09-12T10:28:54.093Z,19.97
2022-09-12T10:31:29.555Z,15.13
2022-09-12T10:34:22.361Z,17.45
2022-09-12T10:40:56.749Z,15.77
2022-09-12T10:43:54.277Z,15.67
2022-09-12T10:47:03.458Z,15.73
2022-09-12T10:56:50.722Z,15.43
2022-09-12T11:03:41.919Z,11.63
2022-09-12T11:06:29.095Z,10.43
2022-09-12T11:09:06.139Z,11.80
2022-09-12T11:12:02.244Z,9.27
2022-09-12T11:15:31.640Z,9.27
2022-09-12T11:18:24.759Z,10.27
2022-09-12T11:21:09.825Z,9.18
2022-09-12T11:24:07.649Z,6.68
2022-09-12T11:30:50.801Z,5.87
2022-09-12T11:34:05.420Z,5.60
2022-09-12T11:37:18.267Z,6.43
2022-09-12T11:43:54.499Z,5.95
2022-09-12T11:50:00.152Z,4.40
2022-09-12T11:52:59.463Z,4.32
2022-09-12T12:02:14.625Z,3.83
2022-09-12T12:06:06.787Z,4.03
2022-09-12T12:09:15.248Z,4.63
2022-09-12T12:15:59.140Z,4.25
2022-09-12T12:32:31.359Z,4.03
2022-09-12T12:35:41.347Z,3.10
2022-09-12T12:38:29.597Z,5.15
2022-09-12T12:41:17.828Z,4.20
2022-09-12T12:43:45.796Z,3.17
2022-09-12T12:46:14.716Z,2.85
2022-09-12T12:49:20.038Z,4.60
2022-09-12T12:51:57.634Z,4.13
2022-09-12T12:54:31.360Z,3.60
2022-09-12T12:57:04.879Z,2.60
2022-09-12T12:59:32.184Z,2.30
2022-09-12T13:02:00.029Z,3.63
2022-09-12T13:04:30.607Z,4.45
2022-09-12T13:07:07.189Z,4.97
2022-09-12T13:09:39.762Z,4.57
2022-09-12T13:12:10.286Z,3.45
2022-09-12T13:14:51.657Z,3.20
2022-09-12T13:17:22.729Z,4.55
2022-09-12T13:20:10.604Z,5.32
2022-09-12T13:22:42.906Z,2.90
2022-09-12T13:25:25.151Z,3.47
2022-09-12T13:28:04.065Z,4.27
2022-09-12T13:30:33.633Z,3.90
2022-09-12T13:33:10.294Z,3.47
2022-09-12T13:35:41.504Z,3.22
2022-09-12T13:38:13.209Z,3.17
2022-09-12T13:40:57.300Z,4.57
2022-09-12T13:43:40.681Z,2.95
2022-09-12T13:46:09.586Z,2.78
2022-09-12T13:48:36.317Z,2.35
2022-09-12T13:51:06.024Z,3.42
2022-09-12T13:53:47.242Z,3.10
2022-09-12T13:56:17.915Z,3.05
2022-09-12T13:58:56.910Z,3.95
2022-09-12T14:07:55.415Z,4.57
2022-09-12T14:17:37.206Z,4.63
2022-09-12T14:21:10.475Z,3.20
2022-09-12T14:51:35.235Z,3.00
2022-09-12T14:54:02.756Z,2.63
2022-09-12T14:56:55.220Z,3.83
2022-09-12T15:00:14.578Z,2.70
2022-09-12T15:05:27.954Z,2.20
2022-09-12T15:07:56.155Z,3.53
2022-09-12T15:10:33.903Z,3.83
2022-09-12T15:13:15.308Z,3.35
2022-09-12T15:15:47.037Z,3.40
2022-09-12T15:18:15.919Z,3.90
2022-09-12T15:20:44.684Z,3.22
2022-09-12T15:23:20.712Z,4.00
2022-09-12T15:25:47.754Z,3.95
2022-09-12T15:28:19.790Z,3.08
2022-09-12T15:30:50.026Z,3.58
2022-09-12T15:33:18.939Z,3.83
2022-09-12T15:35:45.956Z,3.23
2022-09-12T15:38:12.897Z,3.72
2022-09-12T15:40:40.847Z,2.60
2022-09-12T15:43:07.425Z,3.00
2022-09-12T15:45:35.458Z,3.22
2022-09-12T15:48:03.338Z,2.20
2022-09-12T15:50:30.600Z,2.50
2022-09-12T15:52:57.670Z,3.35
2022-09-12T15:55:28.709Z,2.90
2022-09-12T15:57:55.742Z,2.65
2022-09-12T16:00:22.754Z,4.10
2022-09-12T16:02:54.147Z,2.45
2022-09-12T16:05:25.153Z,2.95
2022-09-12T16:10:36.730Z,3.85
2022-09-12T16:13:04.613Z,3.47
2022-09-12T16:15:31.195Z,2.00
2022-09-12T16:17:57.724Z,2.70
2022-09-12T16:20:24.439Z,2.83
2022-09-12T16:22:50.971Z,3.88
2022-09-12T16:25:18.186Z,3.27
2022-09-12T16:27:45.117Z,2.05
2022-09-12T16:30:13.090Z,2.42
2022-09-12T16:32:39.593Z,4.05
2022-09-12T16:35:08.846Z,3.70
2022-09-12T16:37:35.490Z,2.33
2022-09-12T16:40:04.675Z,2.22
2022-09-12T16:42:31.291Z,4.10
2022-09-12T16:44:57.969Z,2.45
2022-09-12T16:47:24.497Z,2.28
2022-09-12T16:49:51.358Z,7.50
2022-09-12T16:52:19.319Z,2.17
2022-09-12T16:54:46.952Z,3.20
2022-09-12T16:57:13.487Z,2.47
2022-09-12T16:59:39.979Z,3.03
2022-09-12T17:02:07.547Z,1.90
2022-09-12T17:04:34.221Z,4.18
2022-09-12T17:07:00.802Z,2.25
2022-09-12T17:09:28.189Z,2.45
2022-09-12T17:11:55.736Z,2.40
2022-09-12T17:14:22.891Z,1.80
2022-09-12T17:16:51.981Z,2.70
2022-09-12T17:19:22.165Z,3.08
2022-09-12T17:36:05.790Z,3.83
2022-09-12T17:38:34.774Z,3.28
2022-09-12T17:41:23.619Z,2.45
2022-09-12T17:44:16.927Z,4.13
2022-09-12T17:46:43.329Z,4.18
2022-09-12T17:49:17.387Z,3.30
2022-09-12T17:51:45.297Z,4.30
2022-09-12T17:54:16.109Z,6.15
2022-09-12T17:56:44.509Z,2.70
2022-09-12T18:02:19.290Z,3.20
2022-09-12T18:04:46.996Z,2.75
2022-09-12T18:07:18.309Z,2.80
2022-09-12T18:09:47.956Z,3.17
2022-09-12T18:12:15.790Z,4.57
2022-09-12T18:14:42.799Z,2.60
2022-09-12T18:17:32.464Z,6.10
2022-09-12T18:23:05.773Z,4.40
2022-09-12T18:25:33.905Z,2.88
2022-09-12T18:28:00.617Z,2.80
2022-09-12T18:30:48.779Z,2.58
2022-09-12T18:33:23.893Z,2.47
2022-09-12T18:36:27.158Z,2.50
2022-09-12T18:38:45.023Z,3.25
2022-09-12T18:41:37.495Z,3.75
2022-09-12T18:44:05.227Z,3.50
2022-09-12T18:46:35.414Z,4.38
2022-09-12T18:49:07.847Z,2.07
2022-09-12T18:51:36.623Z,3.80
2022-09-12T18:54:06.407Z,3.83
2022-09-12T18:56:37.632Z,3.03
2022-09-12T18:59:06.273Z,3.38
2022-09-12T19:01:35.496Z,3.20
2022-09-12T19:04:05.088Z,3.28
2022-09-12T19:06:35.441Z,2.97
2022-09-12T19:09:07.332Z,3.70
2022-09-12T19:11:35.988Z,5.50
2022-09-12T19:14:03.067Z,4.03
2022-09-12T19:16:29.801Z,3.08
2022-09-12T19:18:57.235Z,3.00
2022-09-12T19:21:27.029Z,3.33
2022-09-12T19:23:57.219Z,3.05
2022-09-12T19:26:24.267Z,2.53
2022-09-12T19:28:50.955Z,3.58
2022-09-12T19:31:20.005Z,4.80
2022-09-12T19:36:47.114Z,4.32
2022-09-12T19:39:15.497Z,3.57
2022-09-12T19:41:43.855Z,2.70
2022-09-12T19:44:11.843Z,4.68
2022-09-12T19:46:38.926Z,2.13
2022-09-12T19:49:05.939Z,4.32
2022-09-12T19:51:33.911Z,4.53
2022-09-12T20:30:10.276Z,3.60
2022-09-12T20:37:25.842Z,4.85
2022-09-12T20:40:44.653Z,4.97
2022-09-12T20:48:00.228Z,3.88
2022-09-12T20:57:45.866Z,3.73
2022-09-12T21:02:32.395Z,4.18
2022-09-12T21:24:12.329Z,4.95
2022-09-12T21:27:16.459Z,6.57
2022-09-12T21:30:10.758Z,3.85
2022-09-12T21:35:24.922Z,5.97
2022-09-12T21:49:48.314Z,3.20
2022-09-12T22:04:55.916Z,3.37
2022-09-12T22:07:54.397Z,4.15
2022-09-12T23:23:15.618Z,4.07
2022-09-12T23:56:53.262Z,3.92
